Time;durP1;ratioP1;P1;durP2;ratioP2;P2;SDS_P1;SDS_P2;PMS_P1;PMS_P2;Temp;Humidity;BMP_temperature;BMP_pressure;BME280_temperature;BME280_humidity;BME280_pressure;Samples;Min_cycle;Max_cycle;Signal;HPM_P1;HPM_P2
2022/12/23 00:00:37;;;;;;;;;;;12.50;99.90;;;;;;7339312;19;109059;-88
2022/12/23 00:03:05;;;;;;;;;;;12.50;99.90;;;;;;7332245;19;111221;-88
2022/12/23 00:05:38;;;;;;;;;;;12.50;99.90;;;;;;7341976;19;109851;-89
2022/12/23 00:08:06;;;;;;;;;;;12.50;99.90;;;;;;7338770;19;109653;-88
2022/12/23 00:10:36;;;;;;;;;;;12.40;99.90;;;;;;7340357;19;109105;-88
2022/12/23 00:15:48;;;;;;;;;;;12.50;99.90;;;;;;7344611;19;108540;-88
2022/12/23 00:18:15;;;;;;;;;;;12.50;99.90;;;;;;7342393;19;109483;-88
2022/12/23 00:20:42;;;;;;;;;;;12.40;99.90;;;;;;7343400;19;110322;-88
2022/12/23 00:23:09;;;;;;;;;;;12.40;99.90;;;;;;7343241;19;109512;-88
2022/12/23 00:25:40;;;;;;;;;;;12.40;99.90;;;;;;7342240;19;111301;-88
2022/12/23 00:28:10;;;;;;;;;;;12.40;99.90;;;;;;7348835;19;110288;-89
2022/12/23 00:30:43;;;;;;;;;;;12.40;99.90;;;;;;7341615;19;109106;-88
2022/12/23 00:33:10;;;;;;;;;;;12.40;99.90;;;;;;7343455;19;112230;-88
2022/12/23 00:35:37;;;;;;;;;;;12.40;99.90;;;;;;7344052;19;109136;-88
2022/12/23 00:38:04;;;;;;;;;;;12.40;99.90;;;;;;7343580;19;109541;-89
2022/12/23 00:43:17;;;;;;;;;;;12.30;99.90;;;;;;7338826;19;109149;-88
2022/12/23 00:45:45;;;;;;;;;;;12.30;99.90;;;;;;7338750;19;109645;-88
2022/12/23 00:50:57;;;;;;;;;;;12.30;99.90;;;;;;7342202;19;108434;-89
2022/12/23 00:53:24;;;;;;;;;;;12.30;99.90;;;;;;7340359;19;109576;-89
2022/12/23 00:55:51;;;;;;;;;;;12.30;99.90;;;;;;7339936;19;108936;-88
2022/12/23 00:58:19;;;;;;;;;;;12.30;99.90;;;;;;7333984;19;109196;-88
2022/12/23 01:06:17;;;;;;;;;;;12.30;99.90;;;;;;7340404;19;108508;-88
2022/12/23 01:08:44;;;;;;;;;;;12.30;99.90;;;;;;7339005;19;109709;-88
2022/12/23 01:11:12;;;;;;;;;;;12.30;99.90;;;;;;7343496;19;108490;-88
2022/12/23 01:13:38;;;;;;;;;;;12.30;99.90;;;;;;7341793;19;109397;-89
2022/12/23 01:16:07;;;;;;;;;;;12.30;99.90;;;;;;7334335;19;108571;-88
2022/12/23 01:18:43;;;;;;;;;;;12.30;99.90;;;;;;7337907;19;110432;-88
2022/12/23 01:21:10;;;;;;;;;;;12.30;99.90;;;;;;7335702;19;109421;-88
2022/12/23 01:23:37;;;;;;;;;;;12.30;99.90;;;;;;7338458;19;108852;-88
2022/12/23 01:26:05;;;;;;;;;;;12.30;99.90;;;;;;7337488;19;109552;-88
2022/12/23 01:28:32;;;;;;;;;;;12.30;99.90;;;;;;7336126;19;110897;-88
2022/12/23 01:30:59;;;;;;;;;;;12.30;99.90;;;;;;7342019;19;108325;-89
2022/12/23 01:33:27;;;;;;;;;;;12.30;99.90;;;;;;7347879;19;110071;-89
2022/12/23 01:36:04;;;;;;;;;;;12.20;99.90;;;;;;7341213;19;108366;-88
2022/12/23 01:38:32;;;;;;;;;;;12.20;99.90;;;;;;7339744;19;110724;-89
2022/12/23 01:40:59;;;;;;;;;;;12.20;99.90;;;;;;7340396;19;109802;-89
2022/12/23 01:43:45;;;;;;;;;;;12.20;99.90;;;;;;7335863;19;109619;-88
2022/12/23 01:46:13;;;;;;;;;;;12.20;99.90;;;;;;7331530;19;110667;-88
2022/12/23 01:48:42;;;;;;;;;;;12.30;99.90;;;;;;7335727;19;110253;-88
2022/12/23 01:51:14;;;;;;;;;;;12.20;99.90;;;;;;7337100;19;108618;-89
2022/12/23 01:53:47;;;;;;;;;;;12.20;99.90;;;;;;7337845;19;108539;-89
2022/12/23 01:56:17;;;;;;;;;;;12.20;99.90;;;;;;7341055;19;110764;-88
2022/12/23 01:58:47;;;;;;;;;;;12.20;99.90;;;;;;7337763;19;108699;-89
2022/12/23 02:04:03;;;;;;;;;;;12.10;99.90;;;;;;7340107;19;109729;-89
2022/12/23 02:09:23;;;;;;;;;;;12.20;99.90;;;;;;7339430;19;110556;-88
2022/12/23 02:12:02;;;;;;;;;;;12.20;99.90;;;;;;7340930;19;108385;-88
2022/12/23 02:17:53;;;;;;;;;;;12.20;99.90;;;;;;7344870;19;110459;-88
2022/12/23 02:20:31;;;;;;;;;;;12.10;99.90;;;;;;7352170;19;108468;-88
2022/12/23 02:22:58;;;;;;;;;;;12.10;99.90;;;;;;7344712;19;110291;-88
2022/12/23 02:25:31;;;;;;;;;;;12.00;99.90;;;;;;7341325;19;108513;-88
2022/12/23 02:28:06;;;;;;;;;;;12.00;99.90;;;;;;7346061;19;109925;-88
2022/12/23 02:30:44;;;;;;;;;;;12.00;99.90;;;;;;7344768;19;110347;-89
2022/12/23 02:33:18;;;;;;;;;;;12.00;99.90;;;;;;7341858;19;109400;-88
2022/12/23 02:36:17;;;;;;;;;;;12.00;99.90;;;;;;7345408;19;109372;-89
2022/12/23 02:38:50;;;;;;;;;;;12.00;99.90;;;;;;7341586;19;111666;-88
2022/12/23 02:41:17;;;;;;;;;;;12.00;99.90;;;;;;7341358;19;108366;-88
2022/12/23 02:43:43;;;;;;;;;;;12.00;99.90;;;;;;7348094;19;109952;-89
2022/12/23 02:46:26;;;;;;;;;;;12.00;99.90;;;;;;7341196;19;108873;-88
2022/12/23 02:49:00;;;;;;;;;;;12.00;99.90;;;;;;7341542;19;109034;-88
2022/12/23 02:51:29;;;;;;;;;;;11.90;99.90;;;;;;7341008;19;109088;-89
2022/12/23 02:53:58;;;;;;;;;;;12.00;99.90;;;;;;7344720;19;108998;-88
2022/12/23 02:56:26;;;;;;;;;;;12.00;99.90;;;;;;7340737;19;109268;-89
2022/12/23 02:58:55;;;;;;;;;;;12.00;99.90;;;;;;7343761;19;110184;-88
2022/12/23 03:01:25;;;;;;;;;;;12.00;99.90;;;;;;7339005;19;108421;-89
2022/12/23 03:03:52;;;;;;;;;;;12.00;99.90;;;;;;7344754;19;108920;-88
2022/12/23 03:06:23;;;;;;;;;;;11.90;99.90;;;;;;7346201;19;109644;-89
2022/12/23 03:08:51;;;;;;;;;;;11.90;99.90;;;;;;7344505;19;110266;-88
2022/12/23 03:11:18;;;;;;;;;;;12.00;99.90;;;;;;7342338;19;110751;-89
2022/12/23 03:14:03;;;;;;;;;;;12.00;99.90;;;;;;7344794;19;109148;-88
2022/12/23 03:16:30;;;;;;;;;;;12.00;99.90;;;;;;7349156;19;108791;-89
2022/12/23 03:18:57;;;;;;;;;;;12.00;99.90;;;;;;7350548;19;110686;-88
2022/12/23 03:21:42;;;;;;;;;;;11.90;99.90;;;;;;7347425;19;108303;-89
2022/12/23 03:24:28;;;;;;;;;;;12.00;99.90;;;;;;7349412;19;108850;-89
2022/12/23 03:26:54;;;;;;;;;;;11.90;99.90;;;;;;7358042;19;109180;-88
2022/12/23 03:29:43;;;;;;;;;;;12.00;99.90;;;;;;7335373;19;108747;-89
2022/12/23 03:32:11;;;;;;;;;;;11.90;99.90;;;;;;7342302;19;110711;-88
2022/12/23 03:34:40;;;;;;;;;;;11.90;99.90;;;;;;7350849;19;109224;-89
2022/12/23 03:37:09;;;;;;;;;;;11.90;99.90;;;;;;7350109;19;111158;-88
2022/12/23 03:39:39;;;;;;;;;;;11.90;99.90;;;;;;7349160;19;109261;-88
2022/12/23 03:42:26;;;;;;;;;;;11.90;99.90;;;;;;7350269;19;108615;-88
2022/12/23 03:44:54;;;;;;;;;;;11.90;99.90;;;;;;7349292;19;108383;-88
2022/12/23 03:47:44;;;;;;;;;;;11.90;99.90;;;;;;7349208;19;112716;-88
2022/12/23 03:50:12;;;;;;;;;;;11.90;99.90;;;;;;7353667;19;108666;-88
2022/12/23 03:52:42;;;;;;;;;;;11.90;99.90;;;;;;7348072;19;109684;-88
2022/12/23 03:55:13;;;;;;;;;;;11.90;99.90;;;;;;7349936;19;108278;-88
2022/12/23 03:57:43;;;;;;;;;;;11.80;99.90;;;;;;7348050;19;109124;-89
2022/12/23 04:00:10;;;;;;;;;;;11.80;99.90;;;;;;7346309;19;110766;-89
2022/12/23 04:02:40;;;;;;;;;;;11.80;99.90;;;;;;7349373;19;108653;-88
2022/12/23 04:05:14;;;;;;;;;;;11.80;99.90;;;;;;7348671;19;109139;-89
2022/12/23 04:08:13;;;;;;;;;;;11.80;99.90;;;;;;7349839;19;112983;-88
2022/12/23 04:10:41;;;;;;;;;;;11.80;99.90;;;;;;7342690;19;108925;-89
2022/12/23 04:13:08;;;;;;;;;;;11.80;99.90;;;;;;7350587;19;110346;-88
2022/12/23 04:15:38;;;;;;;;;;;11.80;99.90;;;;;;7344012;19;109120;-89
2022/12/23 04:18:06;;;;;;;;;;;11.70;99.90;;;;;;7347365;19;109473;-88
2022/12/23 04:20:33;;;;;;;;;;;11.80;99.90;;;;;;7341502;19;112096;-88
2022/12/23 04:23:01;;;;;;;;;;;11.80;99.90;;;;;;7347000;19;108805;-89
2022/12/23 04:25:28;;;;;;;;;;;11.70;99.90;;;;;;7343664;19;109747;-89
2022/12/23 04:27:55;;;;;;;;;;;11.70;99.90;;;;;;7345016;19;110590;-88
2022/12/23 04:30:21;;;;;;;;;;;11.70;99.90;;;;;;7343459;19;108779;-88
2022/12/23 04:32:57;;;;;;;;;;;11.70;99.90;;;;;;7344049;19;108737;-89
2022/12/23 04:35:23;;;;;;;;;;;11.70;99.90;;;;;;7348444;19;110596;-88
2022/12/23 04:37:50;;;;;;;;;;;11.70;99.90;;;;;;7344961;19;108846;-89
2022/12/23 04:40:17;;;;;;;;;;;11.70;99.90;;;;;;7342379;19;110436;-89
2022/12/23 04:42:44;;;;;;;;;;;11.70;99.90;;;;;;7345066;19;109394;-89
2022/12/23 04:45:11;;;;;;;;;;;11.80;99.90;;;;;;7344181;19;109446;-89
2022/12/23 04:47:39;;;;;;;;;;;11.70;99.90;;;;;;7347583;19;109041;-89
2022/12/23 04:50:06;;;;;;;;;;;11.70;99.90;;;;;;7346562;19;109259;-89
2022/12/23 04:52:34;;;;;;;;;;;11.70;99.90;;;;;;7348900;19;113779;-89
2022/12/23 04:55:01;;;;;;;;;;;11.80;99.90;;;;;;7346653;19;110953;-89
2022/12/23 04:57:28;;;;;;;;;;;11.70;99.90;;;;;;7352653;19;108456;-88
2022/12/23 04:59:55;;;;;;;;;;;11.70;99.90;;;;;;7347852;19;109314;-88
2022/12/23 05:02:22;;;;;;;;;;;11.80;99.90;;;;;;7346079;19;109057;-89
2022/12/23 05:04:49;;;;;;;;;;;11.70;99.90;;;;;;7348762;19;108263;-88
2022/12/23 05:07:16;;;;;;;;;;;11.70;99.90;;;;;;7344752;19;108881;-88
2022/12/23 05:09:43;;;;;;;;;;;11.70;99.90;;;;;;7346849;19;108318;-89
2022/12/23 05:12:10;;;;;;;;;;;11.70;99.90;;;;;;7344410;19;109494;-88
2022/12/23 05:14:37;;;;;;;;;;;11.70;99.90;;;;;;7348186;19;109482;-88
2022/12/23 05:17:04;;;;;;;;;;;11.70;99.90;;;;;;7344941;19;108387;-88
2022/12/23 05:19:33;;;;;;;;;;;11.70;99.90;;;;;;7352072;19;109432;-88
2022/12/23 05:22:00;;;;;;;;;;;11.70;99.90;;;;;;7345685;19;108504;-89
2022/12/23 05:24:27;;;;;;;;;;;11.70;99.90;;;;;;7345326;19;109023;-88
2022/12/23 05:26:54;;;;;;;;;;;11.70;99.90;;;;;;7344849;19;110532;-89
2022/12/23 05:29:26;;;;;;;;;;;11.70;99.90;;;;;;7345608;19;108411;-88
2022/12/23 05:31:53;;;;;;;;;;;11.70;99.90;;;;;;7345571;19;109197;-88
2022/12/23 05:34:20;;;;;;;;;;;11.70;99.90;;;;;;7343654;19;110315;-89
2022/12/23 05:36:47;;;;;;;;;;;11.70;99.90;;;;;;7343912;19;109438;-89
2022/12/23 05:39:13;;;;;;;;;;;11.70;99.90;;;;;;7349051;19;109244;-89
2022/12/23 05:41:40;;;;;;;;;;;11.70;99.90;;;;;;7344927;19;109680;-88
2022/12/23 05:44:07;;;;;;;;;;;11.70;99.90;;;;;;7347770;19;109817;-87
2022/12/23 05:46:34;;;;;;;;;;;11.70;99.90;;;;;;7346391;19;110366;-88
2022/12/23 05:49:01;;;;;;;;;;;11.70;99.90;;;;;;7346619;19;108300;-88
2022/12/23 05:51:28;;;;;;;;;;;11.70;99.90;;;;;;7345881;19;108496;-88
2022/12/23 05:53:55;;;;;;;;;;;11.70;99.90;;;;;;7343791;19;109636;-88
2022/12/23 05:56:22;;;;;;;;;;;11.70;99.90;;;;;;7345727;19;110254;-88
2022/12/23 05:58:49;;;;;;;;;;;11.70;99.90;;;;;;7345602;19;108129;-88
2022/12/23 06:01:16;;;;;;;;;;;11.70;99.90;;;;;;7348915;19;110196;-88
2022/12/23 06:03:42;;;;;;;;;;;11.70;99.90;;;;;;7347121;19;109531;-88
2022/12/23 06:06:10;;;;;;;;;;;11.70;99.90;;;;;;7344498;19;110915;-88
2022/12/23 06:08:36;;;;;;;;;;;11.70;99.90;;;;;;7344158;19;108645;-88
2022/12/23 06:11:04;;;;;;;;;;;11.70;99.90;;;;;;7344493;19;110362;-88
2022/12/23 06:13:31;;;;;;;;;;;11.70;99.90;;;;;;7343870;19;110826;-88
2022/12/23 06:15:58;;;;;;;;;;;11.60;99.90;;;;;;7343321;19;108439;-87
2022/12/23 06:18:24;;;;;;;;;;;11.70;99.90;;;;;;7345927;19;110206;-87
2022/12/23 06:20:51;;;;;;;;;;;11.70;99.90;;;;;;7342183;19;110288;-87
2022/12/23 06:23:18;;;;;;;;;;;11.60;99.90;;;;;;7349026;19;108893;-87
2022/12/23 06:25:45;;;;;;;;;;;11.70;99.90;;;;;;7345436;19;110235;-88
2022/12/23 06:28:12;;;;;;;;;;;11.70;99.90;;;;;;7344707;19;108449;-88
2022/12/23 06:30:39;;;;;;;;;;;11.60;99.90;;;;;;7344233;19;108999;-88
2022/12/23 06:33:06;;;;;;;;;;;11.70;99.90;;;;;;7342172;19;111830;-87
2022/12/23 06:35:32;;;;;;;;;;;11.70;99.90;;;;;;7344707;19;108465;-88
2022/12/23 06:37:59;;;;;;;;;;;11.70;99.90;;;;;;7342340;19;108945;-87
2022/12/23 06:40:27;;;;;;;;;;;11.70;99.90;;;;;;7342660;19;110803;-87
2022/12/23 06:42:55;;;;;;;;;;;11.60;99.90;;;;;;7342639;19;109824;-87
2022/12/23 06:45:21;;;;;;;;;;;11.60;99.90;;;;;;7349186;19;109096;-87
2022/12/23 06:47:48;;;;;;;;;;;11.60;99.90;;;;;;7345049;19;108467;-88
2022/12/23 06:50:15;;;;;;;;;;;11.60;99.90;;;;;;7340719;19;109482;-88
2022/12/23 06:52:44;;;;;;;;;;;11.60;99.90;;;;;;7341409;19;109865;-87
2022/12/23 06:55:11;;;;;;;;;;;11.60;99.90;;;;;;7343944;19;108494;-87
2022/12/23 06:57:38;;;;;;;;;;;11.60;99.90;;;;;;7343280;19;110763;-88
2022/12/23 07:00:05;;;;;;;;;;;11.60;99.90;;;;;;7335723;19;112020;-87
2022/12/23 07:02:32;;;;;;;;;;;11.60;99.90;;;;;;7331268;19;108568;-87
2022/12/23 07:04:59;;;;;;;;;;;11.60;99.90;;;;;;7334019;19;109438;-87
2022/12/23 07:07:26;;;;;;;;;;;11.60;99.90;;;;;;7338103;19;110284;-87
2022/12/23 07:09:53;;;;;;;;;;;11.60;99.90;;;;;;7336912;19;109358;-88
2022/12/23 07:12:20;;;;;;;;;;;11.60;99.90;;;;;;7333346;19;109831;-87
2022/12/23 07:14:47;;;;;;;;;;;11.50;99.90;;;;;;7335569;19;108627;-87
2022/12/23 07:17:14;;;;;;;;;;;11.50;99.90;;;;;;7335158;19;109627;-87
2022/12/23 07:19:40;;;;;;;;;;;11.50;99.90;;;;;;7337979;19;109171;-87
2022/12/23 07:22:09;;;;;;;;;;;11.50;99.90;;;;;;7332522;19;110577;-87
2022/12/23 07:24:36;;;;;;;;;;;11.50;99.90;;;;;;7337671;19;109653;-86
2022/12/23 07:27:03;;;;;;;;;;;11.50;99.90;;;;;;7335799;19;110094;-87
2022/12/23 07:29:30;;;;;;;;;;;11.60;99.90;;;;;;7338679;19;108317;-90
2022/12/23 07:31:57;;;;;;;;;;;11.50;99.90;;;;;;7334756;19;110357;-86
2022/12/23 07:34:24;;;;;;;;;;;11.60;99.90;;;;;;7334354;19;108336;-87
2022/12/23 07:36:51;;;;;;;;;;;11.60;99.90;;;;;;7331399;19;109462;-87
2022/12/23 07:39:18;;;;;;;;;;;11.50;99.90;;;;;;7334985;19;110400;-87
2022/12/23 07:41:45;;;;;;;;;;;11.50;99.90;;;;;;7333855;19;108845;-86
2022/12/23 07:44:12;;;;;;;;;;;11.50;99.90;;;;;;7333188;19;109248;-86
2022/12/23 07:46:39;;;;;;;;;;;11.50;99.90;;;;;;7334998;19;110222;-87
2022/12/23 07:49:06;;;;;;;;;;;11.60;99.90;;;;;;7338529;19;109358;-87
2022/12/23 07:51:33;;;;;;;;;;;11.50;99.90;;;;;;7335285;19;110727;-87
2022/12/23 07:54:00;;;;;;;;;;;11.50;99.90;;;;;;7332471;19;109106;-88
2022/12/23 07:56:27;;;;;;;;;;;11.50;99.90;;;;;;7332426;19;109629;-89
2022/12/23 07:58:54;;;;;;;;;;;11.50;99.90;;;;;;7333804;19;110211;-86
2022/12/23 08:01:21;;;;;;;;;;;11.50;99.90;;;;;;7335038;19;108334;-88
2022/12/23 08:03:48;;;;;;;;;;;11.50;99.90;;;;;;7338652;19;108669;-90
2022/12/23 08:06:15;;;;;;;;;;;11.40;99.90;;;;;;7335007;19;110012;-88
2022/12/23 08:08:44;;;;;;;;;;;11.40;99.90;;;;;;7339753;19;108518;-87
2022/12/23 08:11:11;;;;;;;;;;;11.50;99.90;;;;;;7345324;19;109223;-88
2022/12/23 08:13:39;;;;;;;;;;;11.50;99.90;;;;;;7339115;19;108571;-88
2022/12/23 08:16:07;;;;;;;;;;;11.50;99.90;;;;;;7337098;19;111491;-88
2022/12/23 08:18:35;;;;;;;;;;;11.50;99.90;;;;;;7336348;19;110308;-86
2022/12/23 08:21:04;;;;;;;;;;;11.50;99.90;;;;;;7339176;19;108987;-87
2022/12/23 08:23:31;;;;;;;;;;;11.40;99.90;;;;;;7337321;19;109730;-85
2022/12/23 08:25:59;;;;;;;;;;;11.50;99.90;;;;;;7338031;19;109088;-85
2022/12/23 08:28:26;;;;;;;;;;;11.40;99.90;;;;;;7338770;19;108737;-86
2022/12/23 08:30:53;;;;;;;;;;;11.40;99.90;;;;;;7338746;19;110285;-87
2022/12/23 08:33:20;;;;;;;;;;;11.40;99.90;;;;;;7342879;19;110655;-87
2022/12/23 08:35:47;;;;;;;;;;;11.40;99.90;;;;;;7338403;19;109378;-87
2022/12/23 08:38:14;;;;;;;;;;;11.40;99.90;;;;;;7334787;19;110341;-86
2022/12/23 08:40:41;;;;;;;;;;;11.40;99.90;;;;;;7339240;19;108779;-87
2022/12/23 08:43:08;;;;;;;;;;;11.40;99.90;;;;;;7338927;19;109310;-86
2022/12/23 08:45:35;;;;;;;;;;;11.30;99.90;;;;;;7341909;19;110036;-85
2022/12/23 08:48:03;;;;;;;;;;;11.30;99.90;;;;;;7342487;19;110097;-86
2022/12/23 08:50:30;;;;;;;;;;;11.30;99.90;;;;;;7344017;19;111660;-86
2022/12/23 08:52:57;;;;;;;;;;;11.30;99.90;;;;;;7341872;19;109850;-87
2022/12/23 08:55:24;;;;;;;;;;;11.20;99.90;;;;;;7341413;19;109207;-87
2022/12/23 08:57:50;;;;;;;;;;;11.20;99.90;;;;;;7336725;19;110177;-86
2022/12/23 09:00:17;;;;;;;;;;;11.20;99.90;;;;;;7341220;19;108744;-86
2022/12/23 09:02:44;;;;;;;;;;;11.20;99.90;;;;;;7339686;19;109151;-87
2022/12/23 09:05:11;;;;;;;;;;;11.10;99.90;;;;;;7341375;19;110510;-87
2022/12/23 09:07:38;;;;;;;;;;;11.10;99.90;;;;;;7337510;19;109062;-88
2022/12/23 09:10:06;;;;;;;;;;;11.10;99.90;;;;;;7338335;19;109269;-88
2022/12/23 09:12:33;;;;;;;;;;;11.10;99.90;;;;;;7334480;19;110702;-86
2022/12/23 09:15:00;;;;;;;;;;;11.10;99.90;;;;;;7336068;19;110356;-87
2022/12/23 09:17:27;;;;;;;;;;;11.10;99.90;;;;;;7341280;19;109110;-86
2022/12/23 09:19:54;;;;;;;;;;;11.00;99.90;;;;;;7334893;19;109738;-86
2022/12/23 09:22:20;;;;;;;;;;;11.10;99.90;;;;;;7336065;19;109558;-86
2022/12/23 09:24:47;;;;;;;;;;;11.10;99.90;;;;;;7337472;19;110410;-86
2022/12/23 09:27:14;;;;;;;;;;;11.20;99.90;;;;;;7337580;19;114184;-86
2022/12/23 09:29:42;;;;;;;;;;;11.20;99.90;;;;;;7336756;19;109231;-86
2022/12/23 09:32:09;;;;;;;;;;;11.20;99.90;;;;;;7337852;19;110314;-87
2022/12/23 09:34:36;;;;;;;;;;;11.30;99.90;;;;;;7336405;19;108799;-87
2022/12/23 09:37:02;;;;;;;;;;;11.30;99.90;;;;;;7344649;19;109432;-87
2022/12/23 09:39:29;;;;;;;;;;;11.30;99.90;;;;;;7333910;19;114134;-88
2022/12/23 09:42:15;;;;;;;;;;;11.30;99.90;;;;;;7336437;19;111747;-87
2022/12/23 09:44:48;;;;;;;;;;;11.30;99.90;;;;;;7336323;19;110415;-88
2022/12/23 09:47:18;;;;;;;;;;;11.30;99.90;;;;;;7336829;19;109070;-88
2022/12/23 09:49:50;;;;;;;;;;;11.30;99.90;;;;;;7334608;19;111756;-87
2022/12/23 09:52:23;;;;;;;;;;;11.30;99.90;;;;;;7335930;19;109173;-88
2022/12/23 09:54:51;;;;;;;;;;;11.30;99.90;;;;;;7335764;19;109191;-88
2022/12/23 09:57:21;;;;;;;;;;;11.30;99.90;;;;;;7337835;19;109638;-88
2022/12/23 10:00:07;;;;;;;;;;;11.20;99.90;;;;;;7341372;19;110982;-88
2022/12/23 10:02:41;;;;;;;;;;;11.20;99.90;;;;;;7337061;19;109340;-88
2022/12/23 10:05:08;;;;;;;;;;;11.20;99.90;;;;;;7334466;19;111530;-87
2022/12/23 10:07:41;;;;;;;;;;;11.30;99.90;;;;;;7334829;19;110088;-87
2022/12/23 10:10:37;;;;;;;;;;;11.30;99.90;;;;;;7326418;19;108487;-87
2022/12/23 10:13:05;;;;;;;;;;;11.20;99.90;;;;;;7335864;19;112523;-87
2022/12/23 10:15:36;;;;;;;;;;;11.20;99.90;;;;;;7332131;19;108948;-87
2022/12/23 10:18:06;;;;;;;;;;;11.30;99.90;;;;;;7331426;19;110316;-87
2022/12/23 10:20:38;;;;;;;;;;;11.30;99.90;;;;;;7329375;19;108950;-87
2022/12/23 10:23:10;;;;;;;;;;;11.30;99.90;;;;;;7337947;19;109982;-87
2022/12/23 10:25:40;;;;;;;;;;;11.30;99.90;;;;;;7335453;19;110478;-87
2022/12/23 10:28:08;;;;;;;;;;;11.30;99.90;;;;;;7334804;19;108439;-87
2022/12/23 10:30:38;;;;;;;;;;;11.30;99.90;;;;;;7336831;19;110252;-86
2022/12/23 10:33:35;;;;;;;;;;;11.30;99.90;;;;;;7333750;19;112671;-86
2022/12/23 10:36:22;;;;;;;;;;;11.30;99.90;;;;;;7337833;19;108309;-86
2022/12/23 10:38:49;;;;;;;;;;;11.30;99.90;;;;;;7339235;19;109383;-86
2022/12/23 10:41:23;;;;;;;;;;;11.30;99.90;;;;;;7333675;19;111032;-86
2022/12/23 10:44:02;;;;;;;;;;;11.30;99.90;;;;;;7337847;19;108651;-86
2022/12/23 10:46:41;;;;;;;;;;;11.30;99.90;;;;;;7340123;19;109275;-86
2022/12/23 10:49:19;;;;;;;;;;;11.30;99.90;;;;;;7336376;19;108922;-86
2022/12/23 10:51:51;;;;;;;;;;;11.30;99.90;;;;;;7336597;19;109047;-86
2022/12/23 10:54:22;;;;;;;;;;;11.30;99.90;;;;;;7336434;19;110335;-85
2022/12/23 10:56:49;;;;;;;;;;;11.30;99.90;;;;;;7337241;19;109250;-85
2022/12/23 10:59:26;;;;;;;;;;;11.30;99.90;;;;;;7334055;19;108998;-85
2022/12/23 11:02:19;;;;;;;;;;;11.30;99.90;;;;;;7335624;19;109695;-86
2022/12/23 11:04:47;;;;;;;;;;;11.30;99.90;;;;;;7333334;19;108633;-85
2022/12/23 11:07:19;;;;;;;;;;;11.30;99.90;;;;;;7335859;19;109064;-86
2022/12/23 11:10:12;;;;;;;;;;;11.30;99.90;;;;;;7339432;19;109015;-86
2022/12/23 11:12:41;;;;;;;;;;;11.40;99.90;;;;;;7335613;19;109311;-86
2022/12/23 11:15:28;;;;;;;;;;;11.40;99.90;;;;;;7335734;19;110130;-86
2022/12/23 11:17:59;;;;;;;;;;;11.40;99.90;;;;;;7335494;19;108303;-86
2022/12/23 11:20:27;;;;;;;;;;;11.30;99.90;;;;;;7335219;19;109179;-85
2022/12/23 11:22:57;;;;;;;;;;;11.30;99.90;;;;;;7334320;19;109147;-85
2022/12/23 11:25:28;;;;;;;;;;;11.40;99.90;;;;;;7333088;19;109413;-86
2022/12/23 11:27:57;;;;;;;;;;;11.40;99.90;;;;;;7336256;19;109935;-86
2022/12/23 11:30:25;;;;;;;;;;;11.40;99.90;;;;;;7334555;19;109985;-86
2022/12/23 11:32:52;;;;;;;;;;;11.40;99.90;;;;;;7341006;19;109535;-86
2022/12/23 11:35:23;;;;;;;;;;;11.40;99.90;;;;;;7336391;19;109295;-86
2022/12/23 11:37:50;;;;;;;;;;;11.40;99.90;;;;;;7343906;19;109069;-86
2022/12/23 11:40:27;;;;;;;;;;;11.40;99.90;;;;;;7340439;19;109270;-86
2022/12/23 11:42:59;;;;;;;;;;;11.40;99.90;;;;;;7341319;19;109234;-92
2022/12/23 11:45:28;;;;;;;;;;;11.50;99.90;;;;;;7340002;19;109094;-84
2022/12/23 11:47:55;;;;;;;;;;;11.50;99.90;;;;;;7341347;19;110101;-82
2022/12/23 11:50:31;;;;;;;;;;;11.50;99.90;;;;;;7339470;19;110497;-82
2022/12/23 11:53:21;;;;;;;;;;;11.40;99.90;;;;;;7344558;19;109113;-81
2022/12/23 11:56:08;;;;;;;;;;;11.40;99.90;;;;;;7340422;19;110171;-82
2022/12/23 11:58:47;;;;;;;;;;;11.40;99.90;;;;;;7342962;19;109224;-82
2022/12/23 12:01:16;;;;;;;;;;;11.40;99.90;;;;;;7340584;19;109612;-81
2022/12/23 12:03:49;;;;;;;;;;;11.40;99.90;;;;;;7343016;19;110525;-82
2022/12/23 12:06:18;;;;;;;;;;;11.40;99.90;;;;;;7339256;19;108945;-81
2022/12/23 12:08:47;;;;;;;;;;;11.40;99.90;;;;;;7342947;19;112292;-81
2022/12/23 12:11:16;;;;;;;;;;;11.40;99.90;;;;;;7340731;19;110546;-82
2022/12/23 12:13:46;;;;;;;;;;;11.40;99.90;;;;;;7341046;19;108922;-82
2022/12/23 12:16:29;;;;;;;;;;;11.40;99.90;;;;;;7344186;19;109679;-82
2022/12/23 12:19:16;;;;;;;;;;;11.40;99.90;;;;;;7341541;19;108677;-81
2022/12/23 12:21:43;;;;;;;;;;;11.40;99.90;;;;;;7338421;19;109525;-81
2022/12/23 12:24:15;;;;;;;;;;;11.40;99.90;;;;;;7340167;19;114358;-81
2022/12/23 12:26:49;;;;;;;;;;;11.40;99.90;;;;;;7342379;19;108667;-81
2022/12/23 12:29:18;;;;;;;;;;;11.40;99.90;;;;;;7339975;19;109139;-81
2022/12/23 12:31:47;;;;;;;;;;;11.40;99.90;;;;;;7340762;19;110692;-81
2022/12/23 12:34:23;;;;;;;;;;;11.40;99.90;;;;;;7337497;19;108940;-82
2022/12/23 12:37:02;;;;;;;;;;;11.40;99.90;;;;;;7338680;19;109803;-81
2022/12/23 12:39:32;;;;;;;;;;;11.40;99.90;;;;;;7345340;19;110538;-81
2022/12/23 12:42:08;;;;;;;;;;;11.40;99.90;;;;;;7340456;19;108906;-81
2022/12/23 12:44:39;;;;;;;;;;;11.40;99.90;;;;;;7340550;19;110615;-81
2022/12/23 12:47:11;;;;;;;;;;;11.50;99.90;;;;;;7338949;19;108736;-81
2022/12/23 12:49:59;;;;;;;;;;;11.50;99.90;;;;;;7338422;19;111640;-81
2022/12/23 12:52:27;;;;;;;;;;;11.50;99.90;;;;;;7340262;19;110162;-81
2022/12/23 12:54:53;;;;;;;;;;;11.50;99.90;;;;;;7341255;19;108268;-81
2022/12/23 12:57:21;;;;;;;;;;;11.50;99.90;;;;;;7338549;19;109068;-81
2022/12/23 12:59:50;;;;;;;;;;;11.50;99.90;;;;;;7335894;19;110507;-81
2022/12/23 13:02:16;;;;;;;;;;;11.50;99.90;;;;;;7343576;19;108957;-81
2022/12/23 13:04:54;;;;;;;;;;;11.50;99.90;;;;;;7338170;19;110994;-81
2022/12/23 13:07:26;;;;;;;;;;;11.60;99.90;;;;;;7339595;19;110812;-81
2022/12/23 13:09:56;;;;;;;;;;;11.60;99.90;;;;;;7340274;19;109224;-81
2022/12/23 13:12:42;;;;;;;;;;;11.70;99.90;;;;;;7338227;19;110318;-81
2022/12/23 13:15:09;;;;;;;;;;;11.70;99.90;;;;;;7338989;19;109201;-81
2022/12/23 13:17:36;;;;;;;;;;;11.70;99.90;;;;;;7339275;19;109178;-81
2022/12/23 13:20:19;;;;;;;;;;;11.80;99.90;;;;;;7336362;19;110533;-81
2022/12/23 13:22:48;;;;;;;;;;;11.80;99.90;;;;;;7339226;19;110625;-81
2022/12/23 13:25:21;;;;;;;;;;;11.90;99.90;;;;;;7342241;19;109595;-81
2022/12/23 13:27:51;;;;;;;;;;;12.00;99.90;;;;;;7334470;19;109879;-81
2022/12/23 13:30:22;;;;;;;;;;;12.10;99.90;;;;;;7337460;19;109349;-81
2022/12/23 13:33:08;;;;;;;;;;;12.10;99.90;;;;;;7337933;19;110122;-81
2022/12/23 13:35:34;;;;;;;;;;;12.20;99.90;;;;;;7338940;19;110391;-82
2022/12/23 13:38:18;;;;;;;;;;;12.20;99.90;;;;;;7338043;19;109216;-82
2022/12/23 13:41:00;;;;;;;;;;;12.30;99.90;;;;;;7337172;19;110352;-82
2022/12/23 13:43:47;;;;;;;;;;;12.30;99.90;;;;;;7336643;19;109009;-83
2022/12/23 13:46:20;;;;;;;;;;;12.50;99.90;;;;;;7337904;19;109478;-82
2022/12/23 13:48:54;;;;;;;;;;;12.60;99.90;;;;;;7346396;19;110563;-82
2022/12/23 13:51:53;;;;;;;;;;;12.60;99.90;;;;;;7341098;19;109174;-82
2022/12/23 13:54:20;;;;;;;;;;;12.80;99.90;;;;;;7335312;19;110799;-82
2022/12/23 13:56:51;;;;;;;;;;;12.90;99.90;;;;;;7336549;19;108821;-83
2022/12/23 13:59:18;;;;;;;;;;;13.00;99.90;;;;;;7333907;19;109310;-83
2022/12/23 14:01:47;;;;;;;;;;;13.10;99.90;;;;;;7334448;19;110291;-83
2022/12/23 14:04:32;;;;;;;;;;;13.10;99.90;;;;;;7334136;19;109358;-82
2022/12/23 14:07:04;;;;;;;;;;;13.30;99.90;;;;;;7338544;19;110022;-82
2022/12/23 14:09:34;;;;;;;;;;;13.30;99.90;;;;;;7340175;19;109541;-82
2022/12/23 14:12:08;;;;;;;;;;;13.40;99.90;;;;;;7336216;19;109472;-83
2022/12/23 14:14:37;;;;;;;;;;;13.40;99.90;;;;;;7337088;19;111744;-83
2022/12/23 14:17:12;;;;;;;;;;;13.40;99.90;;;;;;7336031;19;108401;-82
2022/12/23 14:19:41;;;;;;;;;;;13.50;99.90;;;;;;7337509;19;109170;-82
2022/12/23 14:22:18;;;;;;;;;;;13.50;99.90;;;;;;7335925;19;110434;-82
2022/12/23 14:24:48;;;;;;;;;;;13.60;99.90;;;;;;7334652;19;109445;-82
2022/12/23 14:27:18;;;;;;;;;;;13.60;99.90;;;;;;7335797;19;108981;-82
2022/12/23 14:29:54;;;;;;;;;;;13.60;99.90;;;;;;7336504;19;110444;-82
2022/12/23 14:32:36;;;;;;;;;;;13.70;99.90;;;;;;7341236;19;108912;-85
2022/12/23 14:35:23;;;;;;;;;;;13.70;99.90;;;;;;7334581;19;109681;-83
2022/12/23 14:38:09;;;;;;;;;;;13.80;99.90;;;;;;7333322;19;111077;-83
2022/12/23 14:40:36;;;;;;;;;;;13.70;99.90;;;;;;7333869;19;112034;-83
2022/12/23 14:43:21;;;;;;;;;;;13.80;99.90;;;;;;7334185;19;110245;-83
2022/12/23 14:45:49;;;;;;;;;;;13.70;99.90;;;;;;7335090;19;109169;-82